Time;durP1;ratioP1;P1;durP2;ratioP2;P2;SDS_P1;SDS_P2;PMS_P1;PMS_P2;Temp;Humidity;BMP_temperature;BMP_pressure;BME280_temperature;BME280_humidity;BME280_pressure;Samples;Min_cycle;Max_cycle;Signal;HPM_P1;HPM_P2
2021/12/28 00:00:21;;;;;;;18.40;12.90;;;5.90;99.90;;;;;;5059642;28;20266;-56
2021/12/28 00:02:50;;;;;;;19.33;14.13;;;5.90;99.90;;;;;;5062534;28;20201;-55
2021/12/28 00:05:20;;;;;;;18.47;14.13;;;5.80;99.90;;;;;;5062565;28;20272;-55
2021/12/28 00:07:49;;;;;;;20.47;15.77;;;5.80;99.90;;;;;;5064815;28;20205;-55
2021/12/28 00:10:19;;;;;;;20.43;14.87;;;5.80;99.90;;;;;;5062237;28;20733;-55
2021/12/28 00:12:48;;;;;;;18.43;14.33;;;5.80;99.90;;;;;;5062882;28;20263;-56
2021/12/28 00:15:32;;;;;;;17.83;14.10;;;5.90;99.90;;;;;;5065068;28;20226;-54
2021/12/28 00:18:03;;;;;;;18.73;14.20;;;5.90;99.90;;;;;;5063203;28;20659;-55
2021/12/28 00:20:34;;;;;;;19.73;14.50;;;5.90;99.90;;;;;;5060557;28;20279;-56
2021/12/28 00:23:05;;;;;;;21.93;15.50;;;5.90;99.90;;;;;;5065444;28;20257;-54
2021/12/28 00:25:33;;;;;;;19.90;14.93;;;5.90;99.90;;;;;;5062499;28;20585;-55
2021/12/28 00:28:02;;;;;;;23.57;16.23;;;5.90;99.90;;;;;;5063055;28;20229;-54
2021/12/28 00:30:30;;;;;;;30.63;17.50;;;5.90;99.90;;;;;;5059030;28;20207;-54
2021/12/28 00:32:58;;;;;;;22.60;15.03;;;5.90;99.90;;;;;;5062882;28;20254;-55
2021/12/28 00:35:29;;;;;;;23.00;15.37;;;6.00;99.90;;;;;;5060228;28;20268;-54
2021/12/28 00:37:59;;;;;;;17.53;14.00;;;6.00;99.90;;;;;;5059269;28;20198;-55
2021/12/28 00:40:27;;;;;;;25.83;16.13;;;6.00;99.90;;;;;;5052533;28;20204;-54
2021/12/28 00:42:55;;;;;;;19.20;14.57;;;6.00;99.90;;;;;;5060333;28;20267;-55
2021/12/28 00:45:24;;;;;;;25.10;15.63;;;6.00;99.90;;;;;;5061748;28;20288;-55
2021/12/28 00:47:52;;;;;;;21.43;15.27;;;6.00;99.90;;;;;;5062723;28;20217;-54
2021/12/28 00:50:21;;;;;;;18.77;14.10;;;5.90;99.90;;;;;;5060448;28;20271;-55
2021/12/28 00:52:50;;;;;;;17.83;13.70;;;6.00;99.90;;;;;;5062804;28;20276;-55
2021/12/28 00:55:20;;;;;;;21.27;14.90;;;6.00;99.90;;;;;;5061557;28;20217;-54
2021/12/28 00:57:49;;;;;;;17.27;13.30;;;6.10;99.90;;;;;;5061022;28;20222;-56
2021/12/28 01:00:22;;;;;;;19.43;13.73;;;6.10;99.90;;;;;;5060785;28;20255;-56
2021/12/28 01:02:51;;;;;;;15.03;12.33;;;6.10;99.90;;;;;;5060162;28;20259;-53
2021/12/28 01:05:21;;;;;;;13.97;11.87;;;6.10;99.90;;;;;;5064356;28;20311;-55
2021/12/28 01:07:49;;;;;;;20.30;13.97;;;6.10;99.90;;;;;;5062606;28;20270;-55
2021/12/28 01:10:22;;;;;;;60.27;18.20;;;6.10;99.90;;;;;;5062331;28;20207;-54
2021/12/28 01:12:52;;;;;;;56.20;17.73;;;6.10;99.90;;;;;;5059719;28;20198;-53
2021/12/28 01:15:21;;;;;;;48.07;15.93;;;6.10;99.90;;;;;;5066352;28;20826;-56
2021/12/28 01:17:50;;;;;;;21.33;13.97;;;6.10;99.90;;;;;;5057354;28;20206;-55
2021/12/28 01:20:18;;;;;;;20.83;14.27;;;6.10;99.90;;;;;;5062050;28;20263;-55
2021/12/28 01:22:48;;;;;;;20.37;14.97;;;6.10;99.90;;;;;;5054107;28;20205;-55
2021/12/28 01:25:19;;;;;;;21.60;14.87;;;6.10;99.90;;;;;;5062099;28;20227;-54
2021/12/28 01:27:47;;;;;;;40.90;15.63;;;6.10;99.90;;;;;;5060891;28;20217;-54
2021/12/28 01:30:19;;;;;;;45.00;17.00;;;6.20;99.90;;;;;;5053377;28;20203;-54
2021/12/28 01:32:47;;;;;;;62.50;17.97;;;6.20;99.90;;;;;;5051864;28;20213;-55
2021/12/28 01:35:16;;;;;;;100.63;20.10;;;6.20;99.90;;;;;;5052549;28;20216;-56
2021/12/28 01:37:45;;;;;;;66.87;17.83;;;6.30;99.90;;;;;;5055055;28;20233;-55
2021/12/28 01:40:18;;;;;;;114.47;21.07;;;6.20;99.90;;;;;;5058119;28;20267;-55
2021/12/28 01:43:07;;;;;;;105.20;19.33;;;6.20;99.90;;;;;;5059923;28;20260;-54
2021/12/28 01:45:38;;;;;;;131.23;19.27;;;6.30;99.90;;;;;;5050642;28;20648;-55
2021/12/28 01:48:08;;;;;;;99.47;19.00;;;6.30;99.90;;;;;;5050315;28;20207;-56
2021/12/28 01:50:37;;;;;;;89.00;18.87;;;6.30;99.90;;;;;;5050269;28;20205;-53
2021/12/28 01:53:06;;;;;;;287.07;28.63;;;6.30;99.90;;;;;;5057392;28;20199;-55
2021/12/28 01:55:37;;;;;;;107.47;20.83;;;6.30;99.90;;;;;;5050651;28;20276;-54
2021/12/28 01:58:07;;;;;;;335.50;27.80;;;6.30;99.90;;;;;;5052237;28;20209;-55
2021/12/28 02:00:36;;;;;;;211.20;24.80;;;6.30;99.90;;;;;;5050672;28;20258;-57
2021/12/28 02:03:09;;;;;;;487.30;34.97;;;6.30;99.90;;;;;;5055631;28;20222;-56
2021/12/28 02:05:38;;;;;;;377.27;28.50;;;6.30;99.90;;;;;;5050075;28;20284;-53
2021/12/28 02:08:07;;;;;;;329.00;29.20;;;6.30;99.90;;;;;;5049681;28;20584;-57
2021/12/28 02:10:37;;;;;;;104.30;21.20;;;6.30;99.90;;;;;;5050456;28;20205;-54
2021/12/28 02:13:07;;;;;;;329.60;28.23;;;6.30;99.90;;;;;;5050978;28;20206;-55
2021/12/28 02:15:37;;;;;;;278.57;24.47;;;6.30;99.90;;;;;;5057232;28;20594;-55
2021/12/28 02:18:07;;;;;;;296.40;26.60;;;6.30;99.90;;;;;;5057536;28;20679;-55
2021/12/28 02:20:37;;;;;;;369.03;30.00;;;6.30;99.90;;;;;;5055838;28;20209;-54
2021/12/28 02:23:06;;;;;;;240.33;24.97;;;6.30;99.90;;;;;;5053939;28;20259;-55
2021/12/28 02:25:35;;;;;;;133.23;23.73;;;6.30;99.90;;;;;;5054279;28;20306;-54
2021/12/28 02:28:08;;;;;;;447.80;34.13;;;6.40;99.90;;;;;;5055194;28;20231;-56
2021/12/28 02:30:37;;;;;;;576.30;47.47;;;6.40;99.90;;;;;;5055959;28;20334;-55
2021/12/28 02:33:07;;;;;;;209.67;25.17;;;6.30;99.90;;;;;;5058444;28;20296;-55
2021/12/28 02:35:37;;;;;;;205.23;27.07;;;6.30;99.90;;;;;;5053731;28;20251;-54
2021/12/28 02:38:06;;;;;;;94.40;23.33;;;6.40;99.90;;;;;;5061240;28;20288;-54
2021/12/28 02:40:36;;;;;;;392.40;32.33;;;6.50;99.90;;;;;;5053662;28;20238;-54
2021/12/28 02:43:07;;;;;;;379.53;32.47;;;6.50;99.90;;;;;;5053121;28;20287;-56
2021/12/28 02:45:39;;;;;;;294.43;31.93;;;6.50;99.90;;;;;;5054762;28;20709;-55
2021/12/28 02:48:08;;;;;;;291.70;32.47;;;6.50;99.90;;;;;;5059893;28;20204;-54
2021/12/28 02:50:42;;;;;;;378.10;39.40;;;6.50;99.90;;;;;;5053856;28;20231;-55
2021/12/28 02:53:11;;;;;;;201.77;30.47;;;6.50;99.90;;;;;;5056308;28;20203;-55
2021/12/28 02:55:41;;;;;;;328.33;35.43;;;6.50;99.90;;;;;;5053566;28;20248;-55
2021/12/28 02:58:11;;;;;;;643.93;55.57;;;6.60;99.90;;;;;;5053014;28;20681;-54
2021/12/28 03:00:43;;;;;;;626.17;49.33;;;6.60;99.90;;;;;;5055816;28;20202;-54
2021/12/28 03:03:14;;;;;;;646.77;48.00;;;6.60;99.90;;;;;;5053216;28;20205;-56
2021/12/28 03:05:47;;;;;;;449.17;38.43;;;6.60;99.90;;;;;;5052916;28;20301;-54
2021/12/28 03:08:17;;;;;;;638.57;47.27;;;6.60;99.90;;;;;;5054663;28;20274;-54
2021/12/28 03:10:46;;;;;;;599.47;43.00;;;6.60;99.90;;;;;;5055888;28;20244;-55
2021/12/28 03:13:16;;;;;;;697.57;52.57;;;6.60;99.90;;;;;;5053037;28;20199;-56
2021/12/28 03:15:45;;;;;;;680.47;49.73;;;6.60;99.90;;;;;;5062682;28;20226;-54
2021/12/28 03:18:13;;;;;;;539.30;39.13;;;6.60;99.90;;;;;;5055289;28;20609;-56
2021/12/28 03:20:42;;;;;;;512.10;39.40;;;6.60;99.90;;;;;;5054227;28;20208;-54
2021/12/28 03:23:13;;;;;;;509.97;38.73;;;6.60;99.90;;;;;;5052951;28;20689;-56
2021/12/28 03:25:42;;;;;;;504.97;42.27;;;6.60;99.90;;;;;;5051833;28;20228;-55
2021/12/28 03:28:16;;;;;;;534.53;39.47;;;6.60;99.90;;;;;;5056425;28;20234;-55
2021/12/28 03:30:45;;;;;;;512.67;38.10;;;6.60;99.90;;;;;;5052627;28;20247;-55
2021/12/28 03:33:13;;;;;;;365.93;32.83;;;6.60;99.90;;;;;;5054539;28;20200;-55
2021/12/28 03:35:43;;;;;;;410.60;34.33;;;6.60;99.90;;;;;;5055340;28;20264;-55
2021/12/28 03:38:11;;;;;;;744.97;53.60;;;6.60;99.90;;;;;;5052366;28;20658;-56
2021/12/28 03:40:41;;;;;;;646.40;49.70;;;6.60;99.90;;;;;;5052904;28;20577;-56
2021/12/28 03:43:09;;;;;;;569.53;42.80;;;6.60;99.90;;;;;;5059101;28;20201;-57
2021/12/28 03:45:37;;;;;;;450.67;36.70;;;6.70;99.90;;;;;;5070869;28;20293;-57
2021/12/28 03:48:06;;;;;;;194.80;27.33;;;6.70;99.90;;;;;;5072169;28;20605;-55
2021/12/28 03:50:35;;;;;;;591.73;47.97;;;6.80;99.90;;;;;;5072504;28;20208;-55
2021/12/28 03:53:06;;;;;;;421.83;36.07;;;6.80;99.90;;;;;;5063692;28;20236;-56
2021/12/28 03:55:35;;;;;;;634.43;49.37;;;6.80;99.90;;;;;;5052045;28;20652;-55
2021/12/28 03:58:04;;;;;;;580.90;44.80;;;6.80;99.90;;;;;;5054467;28;20209;-55
2021/12/28 04:00:37;;;;;;;551.57;42.23;;;6.80;99.90;;;;;;5052529;28;20208;-55
2021/12/28 04:03:06;;;;;;;485.07;39.90;;;6.80;99.90;;;;;;5054225;28;20849;-55
2021/12/28 04:05:35;;;;;;;488.40;35.80;;;6.80;99.90;;;;;;5055493;28;20223;-56
2021/12/28 04:08:05;;;;;;;393.10;33.03;;;6.80;99.90;;;;;;5051630;28;20251;-55
2021/12/28 04:10:48;;;;;;;386.77;30.77;;;6.90;99.90;;;;;;5052157;28;20213;-54
2021/12/28 04:13:17;;;;;;;652.00;45.10;;;6.90;99.90;;;;;;5053251;28;20256;-56
2021/12/28 04:15:45;;;;;;;690.23;52.47;;;6.80;99.90;;;;;;5051834;28;20220;-55
2021/12/28 04:18:13;;;;;;;515.87;40.80;;;6.80;99.90;;;;;;5052247;28;20741;-55
2021/12/28 04:20:41;;;;;;;361.67;35.90;;;6.80;99.90;;;;;;5053124;28;20208;-55
2021/12/28 04:23:11;;;;;;;514.40;43.03;;;6.80;99.90;;;;;;5054051;28;20578;-54
2021/12/28 04:25:41;;;;;;;511.67;41.53;;;6.80;99.90;;;;;;5056393;28;20255;-55
2021/12/28 04:28:09;;;;;;;314.03;32.33;;;6.90;99.90;;;;;;5056487;28;20228;-56
2021/12/28 04:30:38;;;;;;;306.50;31.63;;;6.90;99.90;;;;;;5051958;28;20595;-55
2021/12/28 04:33:06;;;;;;;71.07;27.10;;;6.90;99.90;;;;;;5056088;28;20621;-54
2021/12/28 04:35:34;;;;;;;56.40;26.47;;;7.00;99.90;;;;;;5054155;28;20713;-54
2021/12/28 04:38:02;;;;;;;63.80;27.47;;;7.10;99.90;;;;;;5053667;28;20627;-55
2021/12/28 04:40:32;;;;;;;63.60;27.73;;;7.10;99.90;;;;;;5061065;28;20197;-54
2021/12/28 04:43:00;;;;;;;50.43;24.13;;;7.20;99.90;;;;;;5072141;28;20567;-54
2021/12/28 04:45:29;;;;;;;51.77;23.43;;;7.30;99.90;;;;;;5052698;28;20231;-54
2021/12/28 04:47:57;;;;;;;48.10;23.37;;;7.30;99.90;;;;;;5055605;28;20221;-54
2021/12/28 04:50:25;;;;;;;57.80;24.50;;;7.30;99.90;;;;;;5055321;28;20693;-54
2021/12/28 04:52:56;;;;;;;52.60;24.27;;;7.30;99.90;;;;;;5056543;28;20281;-55
2021/12/28 04:55:25;;;;;;;50.50;24.50;;;7.30;99.90;;;;;;5055055;28;20229;-53
2021/12/28 04:57:54;;;;;;;50.67;22.90;;;7.30;99.90;;;;;;5066421;28;20258;-54
2021/12/28 05:00:23;;;;;;;56.60;24.13;;;7.40;99.90;;;;;;5071201;28;20205;-55
2021/12/28 05:02:51;;;;;;;42.40;21.20;;;7.30;99.90;;;;;;5071830;28;20209;-54
2021/12/28 05:05:19;;;;;;;48.27;21.93;;;7.30;99.90;;;;;;5071664;28;20225;-54
2021/12/28 05:07:48;;;;;;;44.43;19.93;;;7.40;99.90;;;;;;5071221;28;20221;-55
2021/12/28 05:10:16;;;;;;;42.33;20.20;;;7.40;99.90;;;;;;5071440;28;20204;-54
2021/12/28 05:12:44;;;;;;;42.83;19.07;;;7.40;99.90;;;;;;5069794;28;20209;-55
2021/12/28 05:15:14;;;;;;;39.10;19.57;;;7.40;99.90;;;;;;5061499;28;20747;-54
2021/12/28 05:17:42;;;;;;;55.60;21.00;;;7.40;99.90;;;;;;5071575;28;20254;-55
2021/12/28 05:20:10;;;;;;;49.23;19.90;;;7.50;99.90;;;;;;5071324;28;20212;-54
2021/12/28 05:22:39;;;;;;;40.17;19.13;;;7.50;99.90;;;;;;5071211;28;20582;-53
2021/12/28 05:25:08;;;;;;;39.47;19.27;;;7.50;99.90;;;;;;5071408;28;20236;-54
2021/12/28 05:27:36;;;;;;;47.13;20.50;;;7.50;99.90;;;;;;5071079;28;20273;-55
2021/12/28 05:30:07;;;;;;;39.70;17.73;;;7.50;99.90;;;;;;5062787;28;20287;-56
2021/12/28 05:32:37;;;;;;;50.13;20.40;;;7.50;99.90;;;;;;5051499;28;20203;-55
2021/12/28 05:35:07;;;;;;;49.30;18.53;;;7.50;99.90;;;;;;5050314;28;20972;-56
2021/12/28 05:37:36;;;;;;;36.93;17.13;;;7.50;99.90;;;;;;5051248;28;20666;-56
2021/12/28 05:40:05;;;;;;;40.93;16.60;;;7.50;99.90;;;;;;5051319;28;20213;-55
2021/12/28 05:42:34;;;;;;;50.43;17.43;;;7.50;99.90;;;;;;5050590;28;20209;-55
2021/12/28 05:45:02;;;;;;;41.73;14.80;;;7.50;99.90;;;;;;5050926;28;20275;-54
2021/12/28 05:47:30;;;;;;;40.53;13.07;;;7.40;99.90;;;;;;5049661;28;20224;-55
2021/12/28 05:50:00;;;;;;;32.43;11.03;;;7.50;99.90;;;;;;5051362;28;20630;-55
2021/12/28 05:52:28;;;;;;;29.70;12.27;;;7.50;99.90;;;;;;5054148;28;20249;-55
2021/12/28 05:54:56;;;;;;;32.70;12.20;;;7.50;99.90;;;;;;5064176;28;20649;-55
2021/12/28 05:57:25;;;;;;;33.33;11.00;;;7.50;99.90;;;;;;5056241;28;20262;-54
2021/12/28 05:59:53;;;;;;;39.50;11.57;;;7.50;99.90;;;;;;5061485;28;20240;-55
2021/12/28 06:02:21;;;;;;;32.87;10.93;;;7.50;99.90;;;;;;5071397;28;20258;-54
2021/12/28 06:04:49;;;;;;;32.87;11.60;;;7.60;99.90;;;;;;5057454;28;20264;-55
2021/12/28 06:07:19;;;;;;;39.80;11.20;;;7.60;99.90;;;;;;5051186;28;20274;-55
2021/12/28 06:09:47;;;;;;;28.57;10.27;;;7.60;99.90;;;;;;5050856;28;20212;-56
2021/12/28 06:12:15;;;;;;;30.73;11.00;;;7.60;99.90;;;;;;5050852;28;20206;-54
2021/12/28 06:14:43;;;;;;;27.13;11.17;;;7.60;99.90;;;;;;5056795;28;20216;-52
2021/12/28 06:17:11;;;;;;;28.40;10.37;;;7.60;99.90;;;;;;5070576;28;20196;-55
2021/12/28 06:19:39;;;;;;;26.93;10.93;;;7.60;99.90;;;;;;5070874;28;20673;-55
2021/12/28 06:22:07;;;;;;;35.37;9.73;;;7.60;99.90;;;;;;5070317;28;20213;-54
2021/12/28 06:24:37;;;;;;;31.93;10.37;;;7.60;99.90;;;;;;5070839;28;20297;-54
2021/12/28 06:27:06;;;;;;;35.20;9.70;;;7.60;99.90;;;;;;5070147;28;20270;-56
2021/12/28 06:29:34;;;;;;;24.40;8.43;;;7.60;99.90;;;;;;5070937;28;20224;-55
2021/12/28 06:32:02;;;;;;;27.23;8.47;;;7.60;99.90;;;;;;5070833;28;20282;-54
2021/12/28 06:34:30;;;;;;;28.57;9.63;;;7.60;99.90;;;;;;5052415;28;20229;-53
2021/12/28 06:36:58;;;;;;;24.67;9.13;;;7.60;99.90;;;;;;5050423;28;20205;-54
2021/12/28 06:39:26;;;;;;;22.57;7.77;;;7.60;99.90;;;;;;5050733;28;20198;-55
2021/12/28 06:41:56;;;;;;;21.57;7.90;;;7.60;99.90;;;;;;5050534;28;20307;-54
2021/12/28 06:44:24;;;;;;;19.97;7.50;;;7.60;99.90;;;;;;5050067;28;20206;-54
2021/12/28 06:46:52;;;;;;;22.23;7.03;;;7.60;99.90;;;;;;5050735;28;20736;-54
2021/12/28 06:49:20;;;;;;;22.63;7.23;;;7.60;99.90;;;;;;5050446;28;20219;-53
2021/12/28 06:51:49;;;;;;;17.87;6.73;;;7.60;99.90;;;;;;5051930;28;20259;-55
2021/12/28 06:54:17;;;;;;;18.90;7.20;;;7.60;99.90;;;;;;5068913;28;20746;-53
2021/12/28 06:56:45;;;;;;;18.57;7.03;;;7.70;99.90;;;;;;5050204;28;20198;-56
2021/12/28 06:59:14;;;;;;;15.53;7.67;;;7.70;99.90;;;;;;5054998;28;20193;-56
2021/12/28 07:01:44;;;;;;;24.50;7.10;;;7.70;99.90;;;;;;5055701;28;20560;-55
2021/12/28 07:04:12;;;;;;;16.97;7.47;;;7.70;99.90;;;;;;5052997;28;20753;-54
2021/12/28 07:06:41;;;;;;;20.87;7.53;;;7.70;99.90;;;;;;5055397;28;20678;-54
2021/12/28 07:09:09;;;;;;;20.53;7.70;;;7.70;99.90;;;;;;5053080;28;20257;-57
2021/12/28 07:11:37;;;;;;;20.83;7.87;;;7.70;99.90;;;;;;5055788;28;20252;-54
2021/12/28 07:14:05;;;;;;;20.77;7.03;;;7.60;99.90;;;;;;5063382;28;20258;-54
2021/12/28 07:16:35;;;;;;;16.93;6.57;;;7.60;99.90;;;;;;5063260;28;20225;-55
2021/12/28 07:19:03;;;;;;;14.93;6.20;;;7.70;99.90;;;;;;5072590;28;20207;-54
2021/12/28 07:21:31;;;;;;;14.50;5.90;;;7.70;99.90;;;;;;5070907;28;20664;-55
2021/12/28 07:23:59;;;;;;;21.00;6.83;;;7.70;99.90;;;;;;5054056;28;20686;-55
2021/12/28 07:26:27;;;;;;;15.73;6.23;;;7.70;99.90;;;;;;5053924;28;20287;-56
2021/12/28 07:28:55;;;;;;;13.80;6.80;;;7.80;99.90;;;;;;5056477;28;20226;-54
2021/12/28 07:31:23;;;;;;;11.90;6.07;;;7.70;99.90;;;;;;5052996;28;20209;-55
2021/12/28 07:33:53;;;;;;;14.03;5.73;;;7.70;99.90;;;;;;5054039;28;20580;-56
2021/12/28 07:36:21;;;;;;;10.43;5.40;;;7.80;99.90;;;;;;5065303;28;20229;-55
2021/12/28 07:38:49;;;;;;;13.23;6.00;;;7.80;99.90;;;;;;5050871;28;20205;-55
2021/12/28 07:41:18;;;;;;;17.03;5.63;;;7.80;99.90;;;;;;5053578;28;20209;-55
2021/12/28 07:43:46;;;;;;;11.97;5.43;;;7.80;99.90;;;;;;5053014;28;20202;-55
2021/12/28 07:46:15;;;;;;;11.27;4.90;;;7.80;99.90;;;;;;5053741;28;20639;-54
2021/12/28 07:48:43;;;;;;;13.13;5.00;;;7.80;99.90;;;;;;5061052;28;20351;-55
2021/12/28 07:51:12;;;;;;;10.67;4.50;;;7.80;99.90;;;;;;5073053;28;20205;-56
2021/12/28 07:53:40;;;;;;;10.97;4.80;;;7.80;99.90;;;;;;5073356;28;20258;-55
2021/12/28 07:56:09;;;;;;;12.67;4.87;;;7.80;99.90;;;;;;5069506;28;20257;-57
2021/12/28 07:58:37;;;;;;;10.63;4.73;;;7.80;99.90;;;;;;5052735;28;20298;-53
2021/12/28 08:01:05;;;;;;;11.33;5.27;;;7.80;99.90;;;;;;5052533;28;20266;-54
2021/12/28 08:03:33;;;;;;;10.83;4.73;;;7.80;99.90;;;;;;5053061;28;20556;-54
2021/12/28 08:06:01;;;;;;;11.17;4.93;;;7.80;99.90;;;;;;5061971;28;20221;-53
2021/12/28 08:08:31;;;;;;;9.53;4.67;;;7.90;99.90;;;;;;5072712;28;20266;-55
2021/12/28 08:11:00;;;;;;;11.00;3.80;;;7.90;99.90;;;;;;5072103;28;20583;-55
2021/12/28 08:13:28;;;;;;;9.57;4.50;;;7.90;99.90;;;;;;5054945;28;20595;-56
2021/12/28 08:15:56;;;;;;;8.43;4.23;;;7.90;99.90;;;;;;5068904;28;20221;-55
2021/12/28 08:18:24;;;;;;;12.40;4.03;;;7.90;99.90;;;;;;5072484;28;20205;-55
2021/12/28 08:20:52;;;;;;;12.07;4.37;;;7.90;99.90;;;;;;5071320;28;20254;-52
2021/12/28 08:23:20;;;;;;;10.30;4.23;;;7.90;99.90;;;;;;5054582;28;20204;-55
2021/12/28 08:25:50;;;;;;;5.93;3.53;;;7.90;99.90;;;;;;5061095;28;20247;-55
2021/12/28 08:28:18;;;;;;;5.57;3.90;;;7.90;99.90;;;;;;5057022;28;20700;-56
2021/12/28 08:30:47;;;;;;;7.50;3.80;;;7.90;99.90;;;;;;5065675;28;20252;-55
2021/12/28 08:33:15;;;;;;;9.03;3.70;;;7.90;99.90;;;;;;5071694;28;20216;-54
2021/12/28 08:35:43;;;;;;;9.87;3.80;;;7.90;99.90;;;;;;5067913;28;20224;-54
2021/12/28 08:38:12;;;;;;;8.57;4.00;;;7.90;99.90;;;;;;5071533;28;20258;-54
2021/12/28 08:40:42;;;;;;;8.53;3.70;;;7.90;99.90;;;;;;5063194;28;20200;-55
2021/12/28 08:43:13;;;;;;;12.10;4.00;;;7.90;99.90;;;;;;5071377;28;20268;-53
2021/12/28 08:45:42;;;;;;;12.03;5.13;;;7.90;99.90;;;;;;5072018;28;20233;-52
2021/12/28 08:48:11;;;;;;;12.80;5.07;;;7.90;99.90;;;;;;5072387;28;20219;-56
2021/12/28 08:50:40;;;;;;;8.93;4.00;;;7.90;99.90;;;;;;5070918;28;20229;-54
2021/12/28 08:53:10;;;;;;;11.30;4.20;;;7.90;99.90;;;;;;5066839;28;20212;-56
2021/12/28 08:55:39;;;;;;;8.57;4.10;;;7.90;99.90;;;;;;5065219;28;20229;-53
2021/12/28 08:58:07;;;;;;;9.67;4.33;;;7.90;99.90;;;;;;5067514;28;20258;-54
2021/12/28 09:00:38;;;;;;;9.37;4.17;;;7.90;99.90;;;;;;5067566;28;20228;-55
2021/12/28 09:03:07;;;;;;;9.17;4.70;;;7.90;99.90;;;;;;5066732;28;20216;-54
2021/12/28 09:05:37;;;;;;;10.10;4.00;;;7.90;99.90;;;;;;5067288;28;20279;-54
2021/12/28 09:08:09;;;;;;;9.43;4.13;;;7.90;99.90;;;;;;5068331;28;20274;-55
2021/12/28 09:10:37;;;;;;;9.77;4.70;;;7.90;99.90;;;;;;5071340;28;20635;-55
2021/12/28 09:13:07;;;;;;;9.20;4.30;;;7.90;99.90;;;;;;5070768;28;20238;-53
2021/12/28 09:15:37;;;;;;;10.53;3.77;;;7.90;99.90;;;;;;5067889;28;20228;-54
2021/12/28 09:18:06;;;;;;;8.47;4.53;;;7.90;99.90;;;;;;5070951;28;20208;-55
2021/12/28 09:20:34;;;;;;;9.77;4.10;;;8.00;99.90;;;;;;5071098;28;20208;-54
2021/12/28 09:23:07;;;;;;;12.07;4.80;;;8.00;99.90;;;;;;5070066;28;20216;-54
2021/12/28 09:25:36;;;;;;;14.07;6.93;;;8.10;99.90;;;;;;5071267;28;20250;-53
2021/12/28 09:28:05;;;;;;;8.23;4.37;;;8.10;99.90;;;;;;5071406;28;20201;-54
2021/12/28 09:30:33;;;;;;;14.90;5.70;;;8.10;99.90;;;;;;5071165;28;20229;-53
2021/12/28 09:33:03;;;;;;;9.13;3.63;;;8.00;99.90;;;;;;5071419;28;20262;-54
2021/12/28 09:35:32;;;;;;;6.77;4.10;;;8.10;99.90;;;;;;5070701;28;20221;-55
2021/12/28 09:38:00;;;;;;;4.70;3.20;;;8.00;99.90;;;;;;5071264;28;20277;-55
2021/12/28 09:40:32;;;;;;;7.47;3.30;;;8.10;99.90;;;;;;5070002;28;20257;-59
2021/12/28 09:43:00;;;;;;;7.13;3.50;;;8.10;99.90;;;;;;5070536;28;20716;-54
2021/12/28 09:45:29;;;;;;;4.27;3.27;;;8.10;99.90;;;;;;5070971;28;20265;-56
2021/12/28 09:47:57;;;;;;;7.20;3.13;;;8.10;99.90;;;;;;5061910;28;20254;-56
2021/12/28 09:50:28;;;;;;;9.97;3.70;;;8.10;99.90;;;;;;5067688;28;20221;-58
2021/12/28 09:52:56;;;;;;;6.37;2.77;;;8.10;99.90;;;;;;5070719;28;20205;-55
2021/12/28 09:55:30;;;;;;;6.65;3.55;;;8.10;99.90;;;;;;5069321;28;20172;-54
2021/12/28 09:57:59;;;;;;;6.03;3.63;;;8.10;99.90;;;;;;5070817;28;20636;-55
2021/12/28 10:00:28;;;;;;;7.77;3.60;;;8.10;99.90;;;;;;5064202;28;20287;-53
2021/12/28 10:03:12;;;;;;;8.67;5.43;;;8.10;99.90;;;;;;5067144;28;20210;-52
2021/12/28 10:05:43;;;;;;;10.27;4.90;;;8.20;99.90;;;;;;5070213;28;20269;-52
2021/12/28 10:08:13;;;;;;;9.37;3.60;;;8.20;99.90;;;;;;5069246;28;20259;-55
2021/12/28 10:10:44;;;;;;;8.37;3.20;;;8.20;99.90;;;;;;5057655;28;20239;-56
2021/12/28 10:13:21;;;;;;;7.83;3.33;;;8.20;99.90;;;;;;5066951;28;20209;-55
2021/12/28 10:15:51;;;;;;;7.60;3.80;;;8.20;99.90;;;;;;5070153;28;20228;-54
2021/12/28 10:18:20;;;;;;;7.10;3.40;;;8.20;99.90;;;;;;5070510;28;21028;-53
2021/12/28 10:20:52;;;;;;;6.47;3.37;;;8.30;99.90;;;;;;5070453;28;20230;-55
2021/12/28 10:23:22;;;;;;;3.93;3.07;;;8.30;99.90;;;;;;5066037;28;20205;-53
2021/12/28 10:25:53;;;;;;;7.47;3.27;;;8.30;99.90;;;;;;5070038;28;20275;-53
2021/12/28 10:28:23;;;;;;;5.03;2.97;;;8.30;99.90;;;;;;5069604;28;20209;-52
2021/12/28 10:30:54;;;;;;;4.90;3.13;;;8.30;99.90;;;;;;5065107;28;20647;-52
2021/12/28 10:33:24;;;;;;;7.17;3.00;;;8.30;99.90;;;;;;5070317;28;20209;-54
2021/12/28 10:35:56;;;;;;;6.97;3.20;;;8.30;99.90;;;;;;5069342;28;20275;-55
2021/12/28 10:38:27;;;;;;;6.20;3.10;;;8.30;99.90;;;;;;5068994;28;20205;-57
2021/12/28 10:40:58;;;;;;;6.63;2.90;;;8.30;99.90;;;;;;5074043;28;20262;-55
2021/12/28 10:43:28;;;;;;;4.67;3.17;;;8.30;99.90;;;;;;5073511;28;20690;-56
2021/12/28 10:46:00;;;;;;;5.93;2.80;;;8.20;99.90;;;;;;5073128;28;20240;-55
2021/12/28 10:48:33;;;;;;;6.32;3.72;;;8.20;99.90;;;;;;5069286;28;20942;-55
2021/12/28 10:51:07;;;;;;;4.37;3.40;;;8.40;99.90;;;;;;5073471;28;20228;-54
2021/12/28 10:53:49;;;;;;;6.07;3.27;;;8.30;99.90;;;;;;5074045;28;20212;-55
2021/12/28 10:56:17;;;;;;;5.13;3.17;;;8.20;99.90;;;;;;5073465;28;20240;-54
2021/12/28 10:58:48;;;;;;;6.37;2.50;;;8.20;99.90;;;;;;5071335;28;20629;-52
2021/12/28 11:01:18;;;;;;;3.77;2.30;;;8.20;99.90;;;;;;5053241;28;20201;-54
2021/12/28 11:03:48;;;;;;;4.43;2.30;;;8.20;99.90;;;;;;5052241;28;20207;-53
2021/12/28 11:06:21;;;;;;;2.97;2.40;;;8.20;99.90;;;;;;5058358;28;20217;-55
2021/12/28 11:08:51;;;;;;;3.50;2.87;;;8.20;99.90;;;;;;5073852;28;20587;-52
2021/12/28 11:11:21;;;;;;;4.47;2.00;;;8.10;99.90;;;;;;5073482;28;20266;-53
2021/12/28 11:13:54;;;;;;;3.23;2.30;;;8.20;99.90;;;;;;5073023;28;20669;-55
2021/12/28 11:16:26;;;;;;;3.30;2.97;;;8.20;99.90;;;;;;5072872;28;20225;-53
2021/12/28 11:18:56;;;;;;;3.23;2.50;;;8.20;99.90;;;;;;5073721;28;20208;-55
2021/12/28 11:21:29;;;;;;;4.13;3.73;;;8.20;99.90;;;;;;5070531;28;20247;-54
2021/12/28 11:24:04;;;;;;;3.90;2.50;;;8.20;99.90;;;;;;5053811;28;20543;-55
2021/12/28 11:26:33;;;;;;;5.30;2.83;;;8.10;99.90;;;;;;5053182;28;20255;-57
2021/12/28 11:29:04;;;;;;;3.57;2.80;;;8.20;99.90;;;;;;5073674;28;20217;-54
2021/12/28 11:31:36;;;;;;;3.03;2.77;;;8.20;99.90;;;;;;5067013;28;20264;-54
2021/12/28 11:34:07;;;;;;;3.43;2.63;;;8.20;99.90;;;;;;5055316;28;20289;-54
2021/12/28 11:36:40;;;;;;;2.90;2.70;;;8.20;99.90;;;;;;5052399;28;20237;-54
2021/12/28 11:39:13;;;;;;;3.47;2.90;;;8.30;99.90;;;;;;5053201;28;20479;-56
2021/12/28 11:41:42;;;;;;;3.47;3.17;;;8.20;99.90;;;;;;5057546;28;20201;-54
2021/12/28 11:44:11;;;;;;;4.07;3.17;;;8.20;99.90;;;;;;5055376;28;20205;-55
2021/12/28 11:46:40;;;;;;;3.43;3.13;;;8.20;99.90;;;;;;5062325;28;20231;-53
2021/12/28 11:49:10;;;;;;;3.30;3.00;;;8.20;99.90;;;;;;5064250;28;20205;-54
2021/12/28 11:51:40;;;;;;;4.43;3.23;;;8.30;99.90;;;;;;5072937;28;20224;-55
2021/12/28 11:54:11;;;;;;;3.10;2.80;;;8.30;99.90;;;;;;5072590;28;20204;-55
2021/12/28 11:56:42;;;;;;;3.70;2.57;;;8.30;99.90;;;;;;5068396;28;20205;-53
2021/12/28 11:59:16;;;;;;;3.20;2.67;;;8.30;99.90;;;;;;5056659;28;20205;-52
2021/12/28 12:02:01;;;;;;;3.27;2.60;;;8.30;99.90;;;;;;5053474;28;20205;-54
2021/12/28 12:04:56;;;;;;;3.43;3.13;;;8.30;99.90;;;;;;5060279;28;20738;-53
2021/12/28 12:07:37;;;;;;;3.40;3.10;;;8.30;99.90;;;;;;5052637;28;20213;-55
2021/12/28 12:10:21;;;;;;;3.53;3.23;;;8.30;99.90;;;;;;5055056;28;20254;-56
2021/12/28 12:12:55;;;;;;;3.70;3.40;;;8.40;99.90;;;;;;5072319;28;20603;-52
2021/12/28 12:15:26;;;;;;;4.40;3.33;;;8.40;99.90;;;;;;5057453;28;20225;-53
2021/12/28 12:18:01;;;;;;;3.50;3.20;;;8.40;99.90;;;;;;5053697;28;20317;-53
2021/12/28 12:20:33;;;;;;;4.03;3.20;;;8.40;99.90;;;;;;5052473;28;20205;-54
2021/12/28 12:23:19;;;;;;;3.87;3.53;;;8.40;99.90;;;;;;5051121;28;20240;-53
2021/12/28 12:26:01;;;;;;;5.10;4.30;;;8.40;99.90;;;;;;5054254;28;20221;-53
2021/12/28 12:28:37;;;;;;;3.67;3.37;;;8.40;99.90;;;;;;5078652;28;20257;-53
2021/12/28 12:31:08;;;;;;;4.40;3.80;;;8.40;99.90;;;;;;5060687;28;20232;-56
2021/12/28 12:33:42;;;;;;;4.63;4.17;;;8.40;99.90;;;;;;5058787;28;20628;-53
2021/12/28 12:36:20;;;;;;;4.63;3.50;;;8.40;99.90;;;;;;5063217;28;20220;-52
2021/12/28 12:38:52;;;;;;;4.80;3.90;;;8.50;99.90;;;;;;5070940;28;20264;-53
2021/12/28 12:41:23;;;;;;;5.03;4.43;;;8.50;99.90;;;;;;5071130;28;20350;-53
2021/12/28 12:43:54;;;;;;;4.47;3.90;;;8.50;99.90;;;;;;5071340;28;20258;-53
2021/12/28 12:46:26;;;;;;;5.40;4.07;;;8.50;99.90;;;;;;5068129;28;20735;-53
2021/12/28 12:49:08;;;;;;;4.63;4.23;;;8.50;99.90;;;;;;5070865;28;20207;-54
2021/12/28 12:51:40;;;;;;;5.87;4.70;;;8.50;99.90;;;;;;5071891;28;20229;-54
2021/12/28 12:54:19;;;;;;;6.53;5.87;;;8.40;99.90;;;;;;5071501;28;20735;-53
2021/12/28 12:57:09;;;;;;;5.47;4.97;;;8.40;99.90;;;;;;5069422;28;20266;-54